Time;durP1;ratioP1;P1;durP2;ratioP2;P2;SDS_P1;SDS_P2;PMS_P1;PMS_P2;Temp;Humidity;BMP_temperature;BMP_pressure;BME280_temperature;BME280_humidity;BME280_pressure;Samples;Min_cycle;Max_cycle;Signal;HPM_P1;HPM_P2
2022/12/16 00:01:12;;;;;;;31.35;9.30;;;-3.80;99.90;;;;;;4993891;28;20102;-71
2022/12/16 00:03:38;;;;;;;28.75;10.40;;;-3.80;99.90;;;;;;4994419;28;20022;-71
2022/12/16 00:06:07;;;;;;;27.55;10.95;;;-3.70;99.90;;;;;;4993788;28;20027;-71
2022/12/16 00:08:35;;;;;;;28.58;9.48;;;-3.70;99.90;;;;;;4992427;28;20038;-71
2022/12/16 00:11:01;;;;;;;26.52;9.65;;;-3.70;99.90;;;;;;4993758;28;20030;-71
2022/12/16 00:13:29;;;;;;;28.15;10.00;;;-3.60;99.90;;;;;;4993899;28;20073;-71
2022/12/16 00:15:54;;;;;;;32.80;11.48;;;-3.60;99.90;;;;;;4996432;28;20057;-71
2022/12/16 00:18:20;;;;;;;22.73;8.93;;;-3.60;99.90;;;;;;4997540;28;20065;-71
2022/12/16 00:20:52;;;;;;;28.98;11.07;;;-3.50;99.90;;;;;;5019860;23;20038;-67
2022/12/16 00:23:18;;;;;;;24.35;10.10;;;-3.60;99.90;;;;;;4978067;28;20050;-67
2022/12/16 00:25:44;;;;;;;30.98;10.35;;;-3.60;99.90;;;;;;4977605;28;20035;-67
2022/12/16 00:28:12;;;;;;;31.02;10.68;;;-3.60;99.90;;;;;;4977988;28;20102;-67
2022/12/16 00:30:37;;;;;;;31.48;10.00;;;-3.50;99.90;;;;;;4976203;28;20110;-67
2022/12/16 00:33:04;;;;;;;20.77;8.90;;;-3.60;99.90;;;;;;4957175;29;20146;-67
2022/12/16 00:35:51;;;;;;;33.10;9.90;;;-3.70;99.90;;;;;;4957133;29;20030;-67
2022/12/16 00:38:17;;;;;;;27.30;8.32;;;-3.70;99.90;;;;;;4958937;28;20023;-67
2022/12/16 00:40:43;;;;;;;27.73;9.65;;;-3.80;99.90;;;;;;4957362;28;20542;-67
2022/12/16 00:43:09;;;;;;;24.55;8.70;;;-3.90;99.90;;;;;;4958826;29;20031;-67
2022/12/16 00:45:35;;;;;;;32.75;9.63;;;-4.00;99.90;;;;;;4958296;28;20027;-68
2022/12/16 00:48:00;;;;;;;27.13;9.95;;;-3.90;99.90;;;;;;4956896;29;20027;-68
2022/12/16 00:50:26;;;;;;;24.90;9.43;;;-3.80;99.90;;;;;;4956869;29;20074;-68
2022/12/16 00:52:52;;;;;;;25.23;8.48;;;-3.80;99.90;;;;;;4957923;28;20139;-68
2022/12/16 00:55:18;;;;;;;24.13;9.25;;;-3.70;99.90;;;;;;4956921;29;20085;-67
2022/12/16 00:57:44;;;;;;;23.00;8.70;;;-3.70;99.90;;;;;;4958010;28;20027;-67
2022/12/16 01:00:13;;;;;;;29.42;9.65;;;-3.70;99.90;;;;;;4957079;29;20024;-67
2022/12/16 01:02:43;;;;;;;26.08;9.50;;;-3.70;99.90;;;;;;4956934;28;20035;-68
2022/12/16 01:05:11;;;;;;;28.85;9.02;;;-3.90;99.90;;;;;;4956675;29;20027;-68
2022/12/16 01:07:37;;;;;;;26.95;8.88;;;-3.80;99.90;;;;;;4956592;29;20077;-68
2022/12/16 01:10:05;;;;;;;24.48;9.18;;;-3.80;99.90;;;;;;4958430;28;20034;-67
2022/12/16 01:12:30;;;;;;;30.85;10.15;;;-3.90;99.90;;;;;;4956429;28;20027;-67
2022/12/16 01:14:56;;;;;;;23.63;9.50;;;-4.00;99.90;;;;;;4956634;29;20028;-68
2022/12/16 01:17:24;;;;;;;24.73;8.75;;;-4.10;99.90;;;;;;4956581;29;20031;-67
2022/12/16 01:19:50;;;;;;;27.50;9.10;;;-3.90;99.90;;;;;;4956450;29;20426;-67
2022/12/16 01:22:16;;;;;;;27.17;8.75;;;-4.00;99.90;;;;;;4956224;28;20038;-67
2022/12/16 01:24:43;;;;;;;30.58;9.48;;;-4.10;99.90;;;;;;4957613;29;20023;-67
2022/12/16 01:27:08;;;;;;;29.55;8.77;;;-4.20;99.90;;;;;;4956817;28;20023;-67
2022/12/16 01:29:34;;;;;;;28.40;9.65;;;-4.10;99.90;;;;;;4956328;29;20024;-67
2022/12/16 01:31:59;;;;;;;21.60;8.32;;;-4.10;99.90;;;;;;4956140;28;20026;-67
2022/12/16 01:34:25;;;;;;;23.75;8.23;;;-4.10;99.90;;;;;;4956097;29;20020;-67
2022/12/16 01:36:50;;;;;;;31.67;9.65;;;-4.00;99.90;;;;;;4957870;29;20034;-67
2022/12/16 01:39:16;;;;;;;24.60;8.90;;;-3.90;99.90;;;;;;4956139;29;20023;-67
2022/12/16 01:41:41;;;;;;;24.05;8.68;;;-3.80;99.90;;;;;;4957450;28;20023;-67
2022/12/16 01:44:15;;;;;;;30.40;9.50;;;-3.70;99.90;;;;;;4955995;29;20208;-67
2022/12/16 01:46:44;;;;;;;28.67;9.90;;;-3.70;99.90;;;;;;4956119;29;20031;-67
2022/12/16 01:49:17;;;;;;;22.08;9.35;;;-3.70;99.90;;;;;;4957279;28;20430;-67
2022/12/16 01:51:44;;;;;;;24.17;8.80;;;-3.80;99.90;;;;;;4957323;28;20110;-67
2022/12/16 01:54:24;;;;;;;32.78;10.75;;;-3.80;99.90;;;;;;4955777;29;20035;-67
2022/12/16 01:57:19;;;;;;;22.45;8.35;;;-3.80;99.90;;;;;;4955770;29;20027;-67
2022/12/16 01:59:49;;;;;;;29.52;8.85;;;-3.80;99.90;;;;;;4954765;29;20082;-67
2022/12/16 02:02:15;;;;;;;23.67;9.27;;;-3.80;99.90;;;;;;4955671;28;20050;-67
2022/12/16 02:05:19;;;;;;;25.35;8.48;;;-3.80;99.90;;;;;;4955663;29;20051;-67
2022/12/16 02:07:26;;;;;;;25.42;8.85;;;-3.70;99.90;;;;;;4956808;29;20086;-67
2022/12/16 02:09:53;;;;;;;28.17;9.20;;;-3.70;99.90;;;;;;4955543;29;20435;-67
2022/12/16 02:12:55;;;;;;;24.80;8.57;;;-3.70;99.90;;;;;;4955256;28;20031;-67
2022/12/16 02:15:52;;;;;;;27.75;8.73;;;-3.90;99.90;;;;;;4956426;29;20050;-67
2022/12/16 02:18:56;;;;;;;21.02;7.93;;;-4.10;99.90;;;;;;4956225;29;20078;-67
2022/12/16 02:21:49;;;;;;;27.52;8.95;;;-4.20;99.90;;;;;;4900702;29;20032;-67
2022/12/16 02:24:31;;;;;;;21.02;7.78;;;-4.20;99.90;;;;;;4903084;29;20035;-67
2022/12/16 02:27:23;;;;;;;24.48;9.40;;;-4.10;99.90;;;;;;4900707;29;20036;-67
2022/12/16 02:30:03;;;;;;;18.35;7.60;;;-4.10;99.90;;;;;;4900466;29;20068;-67
2022/12/16 02:32:53;;;;;;;22.63;8.63;;;-4.20;99.90;;;;;;4900593;29;20040;-67
2022/12/16 02:35:37;;;;;;;20.38;6.82;;;-4.00;99.90;;;;;;4916228;29;20088;-67
2022/12/16 02:38:40;;;;;;;25.98;9.00;;;-4.00;99.90;;;;;;4899669;29;20112;-67
2022/12/16 02:41:33;;;;;;;24.20;9.00;;;-4.00;99.90;;;;;;4900053;29;20032;-67
2022/12/16 02:44:04;;;;;;;24.42;7.80;;;-4.00;99.90;;;;;;4900770;29;20028;-67
2022/12/16 02:46:32;;;;;;;26.75;7.22;;;-3.90;99.90;;;;;;4916186;29;20036;-67
2022/12/16 02:49:13;;;;;;;20.70;8.15;;;-3.90;99.90;;;;;;4915945;29;20036;-67
2022/12/16 02:51:39;;;;;;;21.48;7.88;;;-3.80;99.90;;;;;;4914768;29;20039;-67
2022/12/16 02:54:07;;;;;;;20.67;7.25;;;-3.70;99.90;;;;;;4955934;28;20106;-67
2022/12/16 02:56:58;;;;;;;22.65;7.10;;;-3.60;99.90;;;;;;4954957;29;20027;-67
2022/12/16 02:59:43;;;;;;;21.85;7.25;;;-3.70;99.90;;;;;;4955310;29;20034;-67
2022/12/16 03:02:45;;;;;;;17.70;7.38;;;-3.70;99.90;;;;;;4955169;28;20118;-67
2022/12/16 03:05:22;;;;;;;13.53;6.30;;;-3.60;99.90;;;;;;4940692;28;20509;-68
2022/12/16 03:07:50;;;;;;;22.70;6.85;;;-3.50;99.90;;;;;;4954805;29;20086;-68
2022/12/16 03:10:20;;;;;;;22.90;8.43;;;-3.40;99.90;;;;;;4957379;28;20059;-68
2022/12/16 03:12:45;;;;;;;25.80;8.02;;;-3.50;99.90;;;;;;4961788;28;20027;-67
2022/12/16 03:15:17;;;;;;;21.27;7.30;;;-3.50;99.90;;;;;;4954405;29;20027;-67
2022/12/16 03:17:45;;;;;;;22.40;6.78;;;-3.60;99.90;;;;;;4955685;28;20083;-68
2022/12/16 03:20:33;;;;;;;14.00;6.15;;;-3.70;99.90;;;;;;4955495;28;20035;-68
2022/12/16 03:23:04;;;;;;;21.92;7.70;;;-3.70;99.90;;;;;;4955466;28;20039;-67
2022/12/16 03:25:32;;;;;;;22.20;8.32;;;-3.60;99.90;;;;;;4955838;28;20050;-67
2022/12/16 03:28:00;;;;;;;27.73;8.75;;;-3.60;99.90;;;;;;4955708;28;20047;-68
2022/12/16 03:30:31;;;;;;;29.25;9.93;;;-3.70;99.90;;;;;;4955683;29;20028;-68
2022/12/16 03:33:02;;;;;;;29.55;9.73;;;-3.70;99.90;;;;;;4954476;28;20023;-68
2022/12/16 03:35:35;;;;;;;24.80;9.48;;;-3.70;99.90;;;;;;4955126;29;20086;-68
2022/12/16 03:38:04;;;;;;;26.67;9.73;;;-3.90;99.90;;;;;;4954452;29;20034;-68
2022/12/16 03:40:31;;;;;;;39.85;11.73;;;-3.80;99.90;;;;;;4954124;29;20027;-68
2022/12/16 03:43:00;;;;;;;36.28;11.70;;;-4.00;99.90;;;;;;4954063;28;20031;-68
2022/12/16 03:45:29;;;;;;;29.45;10.88;;;-3.90;99.90;;;;;;4954147;29;20027;-67
2022/12/16 03:47:58;;;;;;;29.05;10.63;;;-4.00;99.90;;;;;;4954081;29;20023;-67
2022/12/16 03:50:32;;;;;;;35.63;11.65;;;-4.00;99.90;;;;;;4956635;28;20074;-67
2022/12/16 03:52:59;;;;;;;31.55;10.00;;;-4.10;99.90;;;;;;4966482;28;20119;-67
2022/12/16 03:55:25;;;;;;;30.20;10.73;;;-4.10;99.90;;;;;;4978487;28;20038;-67
2022/12/16 03:57:50;;;;;;;27.88;10.00;;;-4.10;99.90;;;;;;4977409;28;20117;-67
2022/12/16 04:00:16;;;;;;;25.70;9.50;;;-4.10;99.90;;;;;;4977178;28;20110;-68
2022/12/16 04:02:42;;;;;;;28.98;11.95;;;-4.20;99.90;;;;;;4977051;28;20034;-67
2022/12/16 04:05:08;;;;;;;33.55;11.20;;;-4.10;99.90;;;;;;4977203;28;20089;-67
2022/12/16 04:07:34;;;;;;;29.63;11.75;;;-4.20;99.90;;;;;;4977594;28;20030;-67
2022/12/16 04:09:59;;;;;;;33.35;12.38;;;-4.20;99.90;;;;;;4977141;28;20038;-67
2022/12/16 04:26:30;;;;;;;37.17;12.70;;;-4.40;99.90;;;;;;4978563;28;20065;-68
2022/12/16 04:28:55;;;;;;;40.15;12.50;;;-4.30;99.90;;;;;;4976710;28;20027;-68
2022/12/16 04:31:21;;;;;;;34.72;12.43;;;-4.30;99.90;;;;;;4976997;28;20038;-68
